createdAt,value
2018-05-17T00:00:39.900Z,10.97
2018-05-17T00:03:09.310Z,11.90
2018-05-17T00:05:38.719Z,11.97
2018-05-17T00:08:08.103Z,12.87
2018-05-17T00:10:37.538Z,13.40
2018-05-17T00:13:06.977Z,12.30
2018-05-17T00:15:36.355Z,11.90
2018-05-17T00:18:05.759Z,12.13
2018-05-17T00:20:35.168Z,10.57
2018-05-17T00:23:04.559Z,12.67
2018-05-17T00:25:33.972Z,12.57
2018-05-17T00:28:03.840Z,10.87
2018-05-17T00:30:33.246Z,11.27
2018-05-17T00:33:02.657Z,11.17
2018-05-17T00:35:33.313Z,11.63
2018-05-17T00:38:02.711Z,11.80
2018-05-17T00:40:32.129Z,10.83
2018-05-17T00:43:01.517Z,10.20
2018-05-17T00:45:30.921Z,12.00
2018-05-17T00:48:00.301Z,11.00
2018-05-17T00:50:29.728Z,11.30
2018-05-17T00:53:05.491Z,11.53
2018-05-17T00:55:34.912Z,11.60
2018-05-17T00:58:04.310Z,10.50
2018-05-17T01:00:33.720Z,10.83
2018-05-17T01:03:04.057Z,10.67
2018-05-17T01:05:33.467Z,10.87
2018-05-17T01:08:02.860Z,11.20
2018-05-17T01:10:32.287Z,10.27
2018-05-17T01:13:01.672Z,10.57
2018-05-17T01:15:31.100Z,10.37
2018-05-17T01:18:00.495Z,11.80
2018-05-17T01:20:29.890Z,11.07
2018-05-17T01:22:59.288Z,11.10
2018-05-17T01:25:28.735Z,10.20
2018-05-17T01:27:58.099Z,11.03
2018-05-17T01:30:27.503Z,9.87
2018-05-17T01:32:56.893Z,10.97
2018-05-17T01:35:27.235Z,10.50
2018-05-17T01:38:02.624Z,10.70
2018-05-17T01:40:33.780Z,9.90
2018-05-17T01:43:03.172Z,10.40
2018-05-17T01:45:32.587Z,9.50
2018-05-17T01:48:02.045Z,11.07
2018-05-17T01:50:31.456Z,14.03
2018-05-17T01:53:00.862Z,11.40
2018-05-17T01:55:30.263Z,10.67
2018-05-17T01:57:59.656Z,11.57
2018-05-17T02:00:29.341Z,10.13
2018-05-17T02:02:58.761Z,10.87
2018-05-17T02:05:28.168Z,10.70
2018-05-17T02:07:58.052Z,10.43
2018-05-17T02:10:27.459Z,10.80
2018-05-17T02:12:56.851Z,11.20
2018-05-17T02:15:26.257Z,9.80
2018-05-17T02:17:55.648Z,10.90
2018-05-17T02:20:25.071Z,10.80
2018-05-17T02:22:54.471Z,10.40
2018-05-17T02:25:23.666Z,10.03
2018-05-17T02:27:51.817Z,11.27
2018-05-17T02:30:20.415Z,10.40
2018-05-17T02:32:48.566Z,10.80
2018-05-17T02:35:17.503Z,9.70
2018-05-17T02:37:45.672Z,10.00
2018-05-17T02:40:13.805Z,9.70
2018-05-17T02:42:42.287Z,9.57
2018-05-17T02:45:11.200Z,11.63
2018-05-17T02:47:39.357Z,9.93
2018-05-17T02:50:08.266Z,11.27
2018-05-17T02:52:36.417Z,9.33
2018-05-17T02:55:07.396Z,11.07
2018-05-17T02:57:35.549Z,10.80
2018-05-17T03:00:03.696Z,10.27
2018-05-17T03:02:32.623Z,10.40
2018-05-17T03:05:00.752Z,10.90
2018-05-17T03:07:30.720Z,11.20
2018-05-17T03:09:59.356Z,9.70
2018-05-17T03:12:27.510Z,10.30
2018-05-17T03:14:55.652Z,10.63
2018-05-17T03:17:26.274Z,10.70
2018-05-17T03:19:54.407Z,10.70
2018-05-17T03:22:22.577Z,11.13
2018-05-17T03:24:50.712Z,10.90
2018-05-17T03:27:18.865Z,10.43
2018-05-17T03:29:46.990Z,9.63
2018-05-17T03:32:15.150Z,10.50
2018-05-17T03:34:44.824Z,11.20
2018-05-17T03:37:12.990Z,11.27
2018-05-17T03:39:41.457Z,10.47
2018-05-17T03:42:10.397Z,10.50
2018-05-17T03:44:38.524Z,11.37
2018-05-17T03:47:07.444Z,10.07
2018-05-17T03:49:35.576Z,10.93
2018-05-17T03:52:04.808Z,11.20
2018-05-17T03:54:32.932Z,10.70
2018-05-17T03:57:01.090Z,10.63
2018-05-17T03:59:29.218Z,9.80
2018-05-17T04:02:10.052Z,10.03
2018-05-17T04:04:49.950Z,9.47
2018-05-17T04:07:18.125Z,10.17
2018-05-17T04:09:48.844Z,8.97
2018-05-17T04:12:17.772Z,10.17
2018-05-17T04:14:48.232Z,11.13
2018-05-17T04:17:16.444Z,11.27
2018-05-17T04:19:44.723Z,11.17
2018-05-17T04:22:13.355Z,9.90
2018-05-17T04:24:41.484Z,10.37
2018-05-17T04:27:12.001Z,9.63
2018-05-17T04:29:40.893Z,10.07
2018-05-17T04:32:10.939Z,9.93
2018-05-17T04:34:39.078Z,10.60
2018-05-17T04:37:08.006Z,9.17
2018-05-17T04:39:37.638Z,9.90
2018-05-17T04:42:05.798Z,8.60
2018-05-17T04:44:34.693Z,9.67
2018-05-17T04:47:02.956Z,11.70
2018-05-17T04:49:31.824Z,9.63
2018-05-17T04:51:59.989Z,11.20
2018-05-17T04:54:29.028Z,9.77
2018-05-17T04:56:57.624Z,9.17
2018-05-17T04:59:27.051Z,9.10
2018-05-17T05:01:56.001Z,9.57
2018-05-17T05:04:24.138Z,8.53
2018-05-17T05:06:53.052Z,9.67
2018-05-17T05:09:22.850Z,9.23
2018-05-17T05:11:50.928Z,8.60
2018-05-17T05:14:19.089Z,9.40
2018-05-17T05:16:47.994Z,10.20
2018-05-17T05:19:16.158Z,8.13
2018-05-17T05:21:45.048Z,9.07
2018-05-17T05:24:14.713Z,8.57
2018-05-17T05:26:43.662Z,8.47
2018-05-17T05:29:11.817Z,10.70
2018-05-17T05:31:40.783Z,7.93
2018-05-17T05:34:08.900Z,9.27
2018-05-17T05:36:37.065Z,9.60
2018-05-17T05:39:06.793Z,8.10
2018-05-17T05:41:34.931Z,8.00
2018-05-17T05:44:03.081Z,8.50
2018-05-17T05:46:32.116Z,7.50
2018-05-17T05:49:00.628Z,8.47
2018-05-17T05:51:30.188Z,7.77
2018-05-17T05:53:59.040Z,8.73
2018-05-17T05:56:27.729Z,10.77
2018-05-17T05:58:55.935Z,8.17
2018-05-17T06:01:24.061Z,9.97
2018-05-17T06:03:52.212Z,8.20
2018-05-17T06:06:20.904Z,8.57
2018-05-17T06:08:49.850Z,8.60
2018-05-17T06:11:17.985Z,8.53
2018-05-17T06:13:46.149Z,8.10
2018-05-17T06:16:15.061Z,9.30
2018-05-17T06:18:43.232Z,8.80
2018-05-17T06:21:11.359Z,8.90
2018-05-17T06:23:39.527Z,8.33
2018-05-17T06:26:07.654Z,8.80
2018-05-17T06:28:36.614Z,8.77
2018-05-17T06:31:05.364Z,9.23
2018-05-17T06:33:33.525Z,8.93
2018-05-17T06:36:01.648Z,8.37
2018-05-17T06:38:29.801Z,8.20
2018-05-17T06:40:58.107Z,8.23
2018-05-17T06:43:26.946Z,7.80
2018-05-17T06:45:55.081Z,8.33
2018-05-17T06:48:23.987Z,9.57
2018-05-17T06:50:52.121Z,8.07
2018-05-17T06:53:20.276Z,8.33
2018-05-17T06:55:48.408Z,9.30
2018-05-17T06:58:16.585Z,9.30
2018-05-17T07:00:44.721Z,9.30
2018-05-17T07:03:12.880Z,9.50
2018-05-17T07:05:41.084Z,8.00
2018-05-17T07:08:09.998Z,9.80
2018-05-17T07:10:38.126Z,9.90
2018-05-17T07:13:06.303Z,11.00
2018-05-17T07:15:35.802Z,11.10
2018-05-17T07:18:04.138Z,9.97
2018-05-17T07:20:32.115Z,10.37
2018-05-17T07:23:00.274Z,12.30
2018-05-17T07:25:28.418Z,10.73
2018-05-17T07:27:57.370Z,12.27
2018-05-17T07:30:25.555Z,12.43
2018-05-17T07:32:54.053Z,12.80
2018-05-17T07:35:23.497Z,11.73
2018-05-17T07:37:51.685Z,12.97
2018-05-17T07:40:21.772Z,12.37
2018-05-17T07:42:54.392Z,12.30
2018-05-17T07:45:23.964Z,12.27
2018-05-17T07:47:53.726Z,13.23
2018-05-17T07:50:23.322Z,12.13
2018-05-17T07:52:52.718Z,12.40
2018-05-17T07:55:22.699Z,12.83
2018-05-17T07:57:52.970Z,11.40
2018-05-17T08:00:22.406Z,12.17
2018-05-17T08:02:51.782Z,12.60
2018-05-17T08:05:20.770Z,12.47
2018-05-17T08:07:48.897Z,13.40
2018-05-17T08:10:17.830Z,12.37
2018-05-17T08:12:45.948Z,11.50
2018-05-17T08:15:17.829Z,10.77
2018-05-17T08:17:46.724Z,12.60
2018-05-17T08:20:16.013Z,10.33
2018-05-17T08:22:44.972Z,10.27
2018-05-17T08:25:13.159Z,10.33
2018-05-17T08:27:41.332Z,9.73
2018-05-17T08:30:10.823Z,10.03
2018-05-17T08:32:39.702Z,11.50
2018-05-17T08:35:07.880Z,10.80
2018-05-17T08:37:36.160Z,9.47
2018-05-17T08:40:06.678Z,10.37
2018-05-17T08:42:35.442Z,9.60
2018-05-17T08:45:03.639Z,10.70
2018-05-17T08:47:33.162Z,9.50
2018-05-17T08:50:02.776Z,8.93
2018-05-17T08:52:35.446Z,7.93
2018-05-17T08:55:04.905Z,8.60
2018-05-17T08:57:34.381Z,8.47
2018-05-17T09:00:04.005Z,8.47
2018-05-17T09:02:34.003Z,8.47
2018-05-17T09:05:03.611Z,8.20
2018-05-17T09:07:33.004Z,8.17
2018-05-17T09:10:02.595Z,8.70
2018-05-17T09:12:32.849Z,8.50
2018-05-17T09:15:03.306Z,9.10
2018-05-17T09:17:33.014Z,8.57
2018-05-17T09:20:05.513Z,8.53
2018-05-17T09:22:35.996Z,8.37
2018-05-17T09:25:07.761Z,8.20
2018-05-17T09:27:37.656Z,8.23
2018-05-17T09:30:07.810Z,8.57
2018-05-17T09:32:37.276Z,8.47
2018-05-17T09:35:06.741Z,9.27
2018-05-17T09:37:39.688Z,7.97
2018-05-17T09:40:09.102Z,9.17
2018-05-17T09:42:40.008Z,10.10
2018-05-17T09:45:09.545Z,9.43
2018-05-17T09:47:41.030Z,7.43
2018-05-17T09:50:11.165Z,9.37
2018-05-17T09:52:41.231Z,8.70
2018-05-17T09:55:11.384Z,9.10
2018-05-17T09:57:43.318Z,8.40
2018-05-17T10:00:18.965Z,8.40
2018-05-17T10:02:48.349Z,9.90
2018-05-17T10:05:20.235Z,8.70
2018-05-17T10:07:50.253Z,8.67
2018-05-17T10:10:19.665Z,8.37
2018-05-17T10:12:49.058Z,8.50
2018-05-17T10:15:18.485Z,9.60
2018-05-17T10:17:47.863Z,8.00
2018-05-17T10:20:17.323Z,8.10
2018-05-17T10:22:47.526Z,9.10
2018-05-17T10:25:21.080Z,8.80
2018-05-17T10:27:50.671Z,8.20
2018-05-17T10:30:21.215Z,9.50
2018-05-17T10:32:50.748Z,8.77
2018-05-17T10:35:20.236Z,8.20
2018-05-17T10:37:49.711Z,7.70
2018-05-17T10:40:19.144Z,7.70
2018-05-17T10:42:48.520Z,9.57
2018-05-17T10:45:17.935Z,9.70
2018-05-17T10:47:47.317Z,9.07
2018-05-17T10:50:21.622Z,7.83
2018-05-17T10:52:50.993Z,9.00
2018-05-17T10:55:20.408Z,8.70
2018-05-17T10:57:49.806Z,8.77
2018-05-17T11:00:19.223Z,9.50
2018-05-17T11:02:48.607Z,9.00
2018-05-17T11:05:18.012Z,9.90
2018-05-17T11:07:48.732Z,9.20
2018-05-17T11:10:18.151Z,10.30
2018-05-17T11:12:47.548Z,9.43
2018-05-17T11:15:16.984Z,9.67
2018-05-17T11:17:46.342Z,9.60
2018-05-17T11:20:16.700Z,9.60
2018-05-17T11:22:46.098Z,9.17
2018-05-17T11:25:15.577Z,9.57
2018-05-17T11:27:45.280Z,10.43
2018-05-17T11:30:14.704Z,10.80
2018-05-17T11:32:44.859Z,9.80
2018-05-17T11:35:14.943Z,10.30
2018-05-17T11:37:44.331Z,10.20
2018-05-17T11:40:13.724Z,8.93
2018-05-17T11:42:43.112Z,10.00
2018-05-17T11:45:12.528Z,9.23
2018-05-17T11:47:42.534Z,9.57
2018-05-17T11:50:12.568Z,10.33
2018-05-17T11:52:42.789Z,9.83
2018-05-17T11:55:12.193Z,9.03
2018-05-17T11:57:41.571Z,8.90
2018-05-17T12:00:10.974Z,9.60
2018-05-17T12:02:40.356Z,9.27
2018-05-17T12:05:10.609Z,9.90
2018-05-17T12:07:40.094Z,11.00
2018-05-17T12:10:09.442Z,11.40
2018-05-17T12:12:38.848Z,10.33
2018-05-17T12:15:08.922Z,11.57
2018-05-17T12:17:38.289Z,9.53
2018-05-17T12:20:07.699Z,9.50
2018-05-17T12:22:37.749Z,9.60
2018-05-17T12:25:07.157Z,10.27
2018-05-17T12:27:43.303Z,10.23
2018-05-17T12:30:12.840Z,10.00
2018-05-17T12:32:44.928Z,10.40
2018-05-17T12:35:15.580Z,11.20
2018-05-17T12:37:47.739Z,10.73
2018-05-17T12:40:17.150Z,9.30
2018-05-17T12:42:46.618Z,10.17
2018-05-17T12:45:15.960Z,10.70
2018-05-17T12:47:51.941Z,10.40
2018-05-17T12:50:21.343Z,11.50
2018-05-17T12:52:50.745Z,9.83
2018-05-17T12:55:20.168Z,10.50
2018-05-17T12:57:49.541Z,10.07
2018-05-17T13:00:18.956Z,9.37
2018-05-17T13:02:48.360Z,9.60
2018-05-17T13:05:24.247Z,9.30
2018-05-17T13:07:53.637Z,10.00
2018-05-17T13:10:24.806Z,8.90
2018-05-17T13:12:54.192Z,8.80
2018-05-17T13:15:23.604Z,9.30
2018-05-17T13:17:53.788Z,8.70
2018-05-17T13:20:23.192Z,9.57
2018-05-17T13:22:52.576Z,9.30
2018-05-17T13:25:21.992Z,9.20
2018-05-17T13:27:52.612Z,8.97
2018-05-17T13:30:22.016Z,8.97
2018-05-17T13:32:51.423Z,9.20
2018-05-17T13:35:33.111Z,10.00
2018-05-17T13:38:02.497Z,8.10
2018-05-17T13:40:31.898Z,10.00
2018-05-17T13:43:01.291Z,9.57
2018-05-17T13:45:30.708Z,9.70
2018-05-17T13:48:00.926Z,9.07
2018-05-17T13:50:30.336Z,7.83
2018-05-17T13:52:59.724Z,9.63
2018-05-17T13:55:29.129Z,9.27
2018-05-17T13:57:58.520Z,8.20
2018-05-17T14:00:27.922Z,9.17
2018-05-17T14:02:57.390Z,8.20
2018-05-17T14:05:26.732Z,8.47
2018-05-17T14:07:57.468Z,10.00
2018-05-17T14:10:26.871Z,10.80
2018-05-17T14:12:56.266Z,10.40
2018-05-17T14:15:25.717Z,8.07
2018-05-17T14:17:55.953Z,8.80
2018-05-17T14:20:25.355Z,9.17
2018-05-17T14:22:54.738Z,9.03
2018-05-17T14:25:24.148Z,9.53
2018-05-17T14:27:53.539Z,8.70
2018-05-17T14:30:23.869Z,8.20
2018-05-17T14:32:54.174Z,7.93
2018-05-17T14:35:23.577Z,10.23
2018-05-17T14:37:52.971Z,8.97
2018-05-17T14:40:22.373Z,9.20
2018-05-17T14:42:51.771Z,9.23
2018-05-17T14:45:24.987Z,9.43
2018-05-17T14:47:54.384Z,7.80
2018-05-17T14:50:23.799Z,8.20
2018-05-17T14:52:53.182Z,8.73
2018-05-17T14:55:22.590Z,7.83
2018-05-17T14:57:51.971Z,7.17
2018-05-17T15:00:23.551Z,7.37
2018-05-17T15:02:52.945Z,8.07
2018-05-17T15:05:22.347Z,8.13
2018-05-17T15:07:51.736Z,7.63
2018-05-17T15:10:21.150Z,7.20
2018-05-17T15:12:50.535Z,6.87
2018-05-17T15:15:19.936Z,7.20
2018-05-17T15:17:49.324Z,7.67
2018-05-17T15:20:18.754Z,8.00
2018-05-17T15:22:48.248Z,7.57
2018-05-17T15:25:20.479Z,7.27
2018-05-17T15:27:49.858Z,8.23
2018-05-17T15:30:19.257Z,9.87
2018-05-17T15:32:49.287Z,7.60
2018-05-17T15:35:18.696Z,7.30
2018-05-17T15:37:48.081Z,11.17
2018-05-17T15:40:17.518Z,8.83
2018-05-17T15:42:46.905Z,8.80
2018-05-17T15:45:16.335Z,7.13
2018-05-17T15:47:45.715Z,8.80
2018-05-17T15:50:15.099Z,8.40
2018-05-17T15:52:45.347Z,9.10
2018-05-17T15:55:14.733Z,9.33
2018-05-17T15:57:44.139Z,9.80
2018-05-17T16:00:14.137Z,8.53
2018-05-17T16:02:43.554Z,9.17
2018-05-17T16:05:14.554Z,8.60
2018-05-17T16:07:43.997Z,9.00
2018-05-17T16:10:14.019Z,8.90
2018-05-17T16:12:44.063Z,9.13
2018-05-17T16:15:13.600Z,8.43
2018-05-17T16:17:42.880Z,9.20
2018-05-17T16:20:12.254Z,9.33
2018-05-17T16:22:42.189Z,9.60
2018-05-17T16:25:11.563Z,8.73
2018-05-17T16:27:40.968Z,10.30
2018-05-17T16:30:10.355Z,9.00
2018-05-17T16:32:39.827Z,8.60
2018-05-17T16:35:09.167Z,9.00
2018-05-17T16:37:38.576Z,9.20
2018-05-17T16:40:09.716Z,9.80
2018-05-17T16:42:39.180Z,8.87
2018-05-17T16:45:08.517Z,8.97
2018-05-17T16:47:40.828Z,8.87
2018-05-17T16:50:10.216Z,9.87
2018-05-17T16:52:39.679Z,9.77
2018-05-17T16:55:11.771Z,9.37
2018-05-17T16:57:41.866Z,10.67
2018-05-17T17:00:11.251Z,9.47
2018-05-17T17:02:42.083Z,9.27
2018-05-17T17:05:11.545Z,8.33
2018-05-17T17:07:40.923Z,9.60
2018-05-17T17:10:10.297Z,8.73
2018-05-17T17:12:42.432Z,10.20
2018-05-17T17:15:10.474Z,7.73
2018-05-17T17:17:39.125Z,8.27
2018-05-17T17:20:07.254Z,8.60
2018-05-17T17:22:35.409Z,8.07
2018-05-17T17:25:06.908Z,7.00
2018-05-17T17:27:35.048Z,8.77
2018-05-17T17:30:03.186Z,7.80
2018-05-17T17:32:31.328Z,8.20
2018-05-17T17:34:59.453Z,8.33
2018-05-17T17:37:28.372Z,8.50
2018-05-17T17:39:56.929Z,8.50
2018-05-17T17:42:28.429Z,8.53
2018-05-17T17:44:56.555Z,8.00
2018-05-17T17:47:26.718Z,8.50
2018-05-17T17:49:54.849Z,8.60
2018-05-17T17:52:23.746Z,8.97
2018-05-17T17:54:52.630Z,8.30
2018-05-17T17:57:21.551Z,8.13
2018-05-17T17:59:49.676Z,8.40
2018-05-17T18:02:18.936Z,8.50
2018-05-17T18:04:47.129Z,9.30
2018-05-17T18:07:16.036Z,9.17
2018-05-17T18:09:44.171Z,8.90
2018-05-17T18:12:12.329Z,9.50
2018-05-17T18:14:40.461Z,8.93
2018-05-17T18:17:08.645Z,8.73
2018-05-17T18:19:37.788Z,9.40
2018-05-17T18:22:05.938Z,9.13
2018-05-17T18:24:34.062Z,10.43
2018-05-17T18:27:02.239Z,8.67
2018-05-17T18:29:30.380Z,10.00
2018-05-17T18:31:58.538Z,9.30
2018-05-17T18:34:26.677Z,9.73
2018-05-17T18:36:54.910Z,9.73
2018-05-17T18:39:23.900Z,10.03
2018-05-17T18:41:52.038Z,9.80
2018-05-17T18:44:20.932Z,9.20
2018-05-17T18:46:49.853Z,10.17
2018-05-17T18:49:20.711Z,10.07
2018-05-17T18:51:48.872Z,11.57
2018-05-17T18:54:17.881Z,9.97
2018-05-17T18:56:46.027Z,9.67
2018-05-17T18:59:16.015Z,9.23
2018-05-17T19:01:46.260Z,9.43
2018-05-17T19:04:14.424Z,9.53
2018-05-17T19:06:43.171Z,9.93
2018-05-17T19:09:11.303Z,9.63
2018-05-17T19:11:39.449Z,9.10
2018-05-17T19:14:08.413Z,9.80
2018-05-17T19:16:36.516Z,9.63
2018-05-17T19:19:05.418Z,10.87
2018-05-17T19:21:34.625Z,9.80
2018-05-17T19:24:03.409Z,9.90
2018-05-17T19:26:32.846Z,10.17
2018-05-17T19:29:01.137Z,9.70
2018-05-17T19:31:30.868Z,9.60
2018-05-17T19:33:59.010Z,9.60
2018-05-17T19:36:27.457Z,9.23
2018-05-17T19:38:56.018Z,10.20
2018-05-17T19:41:24.534Z,9.70
2018-05-17T19:43:53.175Z,9.80
2018-05-17T19:46:21.407Z,10.20
2018-05-17T19:48:51.942Z,9.33
2018-05-17T19:51:20.331Z,9.97
2018-05-17T19:53:49.214Z,9.63
2018-05-17T19:56:17.856Z,10.47
2018-05-17T19:58:49.260Z,10.03
2018-05-17T20:01:17.824Z,10.87
2018-05-17T20:03:45.964Z,10.03
2018-05-17T20:06:14.875Z,9.43
2018-05-17T20:08:43.618Z,8.70
2018-05-17T20:11:12.963Z,10.53
2018-05-17T20:13:41.447Z,9.50
2018-05-17T20:16:09.621Z,9.40
2018-05-17T20:18:37.784Z,9.30
2018-05-17T20:21:07.196Z,9.43
2018-05-17T20:23:35.357Z,9.57
2018-05-17T20:26:04.266Z,9.20
2018-05-17T20:28:32.407Z,9.93
2018-05-17T20:31:00.536Z,10.17
2018-05-17T20:33:28.693Z,10.67
2018-05-17T20:35:56.821Z,9.57
2018-05-17T20:38:24.956Z,9.13
2018-05-17T20:40:53.226Z,10.33
2018-05-17T20:43:21.389Z,10.60
2018-05-17T20:45:49.520Z,10.93
2018-05-17T20:48:19.334Z,9.60
2018-05-17T20:50:47.954Z,9.37
2018-05-17T20:53:18.300Z,9.20
2018-05-17T20:55:47.162Z,9.20
2018-05-17T20:58:16.233Z,9.80
2018-05-17T21:00:44.527Z,9.53
2018-05-17T21:03:13.690Z,9.60
2018-05-17T21:05:42.585Z,8.80
2018-05-17T21:08:10.828Z,8.43
2018-05-17T21:10:42.855Z,9.17
2018-05-17T21:13:11.769Z,8.63
2018-05-17T21:15:40.048Z,8.10
2018-05-17T21:18:08.200Z,8.93
2018-05-17T21:20:37.603Z,9.07
2018-05-17T21:23:06.520Z,9.70
2018-05-17T21:25:34.643Z,9.97
2018-05-17T21:28:05.393Z,9.07
2018-05-17T21:30:33.527Z,8.83
2018-05-17T21:33:01.676Z,9.27
2018-05-17T21:35:32.489Z,9.23
2018-05-17T21:38:01.401Z,9.90
2018-05-17T21:40:29.535Z,8.77
2018-05-17T21:42:57.678Z,9.10
2018-05-17T21:45:26.289Z,9.13
2018-05-17T21:47:54.446Z,9.27
2018-05-17T21:50:22.576Z,10.37
2018-05-17T21:52:50.720Z,9.10
2018-05-17T21:55:18.840Z,8.53
2018-05-17T21:57:46.995Z,9.23
2018-05-17T22:00:16.507Z,9.20
2018-05-17T22:02:44.675Z,8.57
2018-05-17T22:05:13.412Z,9.23
2018-05-17T22:07:41.569Z,9.00
2018-05-17T22:10:09.705Z,9.47
2018-05-17T22:12:39.940Z,9.07
2018-05-17T22:15:08.077Z,9.50
2018-05-17T22:17:36.228Z,9.03
2018-05-17T22:20:04.364Z,9.87
2018-05-17T22:22:32.510Z,9.27
2018-05-17T22:25:02.036Z,8.80
2018-05-17T22:27:30.173Z,9.70
2018-05-17T22:29:58.800Z,8.73
2018-05-17T22:32:26.959Z,9.90
2018-05-17T22:34:55.085Z,9.00
2018-05-17T22:37:23.242Z,9.77
2018-05-17T22:39:51.363Z,8.20
2018-05-17T22:42:20.281Z,8.63
2018-05-17T22:44:48.885Z,9.03
2018-05-17T22:47:17.012Z,10.10
2018-05-17T22:49:45.940Z,9.80
2018-05-17T22:52:14.077Z,9.40
2018-05-17T22:54:44.058Z,10.10
2018-05-17T22:57:13.744Z,9.93
2018-05-17T22:59:41.888Z,9.23
2018-05-17T23:02:10.844Z,8.97
2018-05-17T23:04:38.997Z,9.77
2018-05-17T23:07:07.618Z,8.63
2018-05-17T23:09:35.773Z,9.40
2018-05-17T23:12:03.919Z,8.00
2018-05-17T23:14:32.080Z,10.10
2018-05-17T23:17:01.374Z,9.27
2018-05-17T23:19:29.530Z,9.57
2018-05-17T23:21:58.440Z,9.40
2018-05-17T23:24:26.593Z,9.67
2018-05-17T23:26:55.479Z,9.00
2018-05-17T23:29:24.391Z,8.43
2018-05-17T23:31:52.521Z,10.00
2018-05-17T23:34:22.069Z,9.73
2018-05-17T23:36:50.212Z,9.07
2018-05-17T23:39:19.215Z,9.20
2018-05-17T23:41:48.113Z,10.00
2018-05-17T23:44:17.035Z,9.67
2018-05-17T23:46:45.146Z,9.23
2018-05-17T23:49:13.768Z,9.90
2018-05-17T23:51:42.663Z,9.47
2018-05-17T23:54:10.820Z,9.90
2018-05-17T23:56:39.712Z,9.70
2018-05-17T23:59:08.632Z,9.20
